PWSweather.com
Personal Weather Stations
Station Observations
MACKBIG
Historic Main Street, Unionville, ON L3R6A5

Historic Main StreetUnionville, ON L3R6A5

Lat: 43.875506, Lon: -79.312903

Elevation: 590

Station Type: Davis VP2 + 6163

http://www.mackweather.com

Latest ConditionsUpdated 6:10:04 AM EST Wednesday, Mar 4, 2015
Currently Today's Max Today's Min Today's Average
Temperature 28.6°F-1.9°C 30.9°F-0.6°C 28.6°F-1.9°C 30.3°F-0.9°C
Dew Point 22.3°F-5.4°C 28.9°F-1.7°C 22.3°F-5.4°C 27.1°F-2.7°C
Winds 1.0 mph WNW1.6 kmh WNW 12.0 mph W19.3 kmh W - 3.4 mph 5.5 kmh
Wind Gusts 3.0 mph4.8 kmh 23.0 mph37.0 kmh - -
Humidity 77% 92% 77% 88%
Pressure 29.78 in1008.5 mb 29.78 in1008.5 mb 29.63 in1003.4 mb -
Precipitation - 0.05 in1.3 mm - -
Hour Temp Dew Point Humidity Winds Wind Gusts Pressure Precip Precip Rate Daily Precip Total
06:10 AM 28.6°F-1.9°C 22.3°F-5.4°C 77% 1.0 mph WNW1.6 kmh WNW 3.0 mph4.8 kmh 29.78 in1008.5 mb 0.00 in0.0 mm 0.00 in/hr0.0 mm/hr 0.05 in1.3 mm
06:00 AM 28.9°F-1.7°C 22.6°F-5.2°C 77% 5.0 mph WNW8.0 kmh WNW 8.0 mph12.9 kmh 29.77 in1008.1 mb 0.00 in0.0 mm 0.00 in/hr0.0 mm/hr 0.05 in1.3 mm
05:50 AM 29.2°F-1.6°C 23.5°F-4.7°C 79% 6.0 mph WNW9.7 kmh WNW 13.0 mph20.9 kmh 29.78 in1008.5 mb 0.00 in0.0 mm 0.00 in/hr0.0 mm/hr 0.05 in1.3 mm
05:40 AM 29.5°F-1.4°C 24.1°F-4.4°C 80% 2.0 mph W3.2 kmh W 7.0 mph11.3 kmh 29.77 in1008.1 mb 0.00 in0.0 mm 0.00 in/hr0.0 mm/hr 0.05 in1.3 mm
05:30 AM 29.7°F-1.3°C 24.3°F-4.3°C 80% 5.0 mph WNW8.0 kmh WNW 6.0 mph9.7 kmh 29.77 in1008.1 mb 0.00 in0.0 mm 0.00 in/hr0.0 mm/hr 0.05 in1.3 mm
05:20 AM 29.8°F-1.2°C 24.7°F-4.1°C 81% 6.0 mph WNW9.7 kmh WNW 18.0 mph29.0 kmh 29.76 in1007.8 mb 0.00 in0.0 mm 0.00 in/hr0.0 mm/hr 0.05 in1.3 mm
05:10 AM 29.9°F-1.2°C 25.1°F-3.8°C 82% 8.0 mph W12.9 kmh W 23.0 mph37.0 kmh 29.75 in1007.5 mb 0.00 in0.0 mm 0.00 in/hr0.0 mm/hr 0.05 in1.3 mm
05:00 AM 30.0°F-1.1°C 25.5°F-3.6°C 83% 7.0 mph W11.3 kmh W 20.0 mph32.2 kmh 29.75 in1007.5 mb 0.00 in0.0 mm 0.00 in/hr0.0 mm/hr 0.05 in1.3 mm
04:50 AM 30.1°F-1.1°C 25.6°F-3.6°C 83% 7.0 mph W11.3 kmh W 12.0 mph19.3 kmh 29.74 in1007.1 mb 0.00 in0.0 mm 0.00 in/hr0.0 mm/hr 0.05 in1.3 mm
04:40 AM 30.1°F-1.1°C 26.1°F-3.3°C 85% 10.0 mph SW16.1 kmh SW 15.0 mph24.1 kmh 29.74 in1007.1 mb 0.00 in0.0 mm 0.00 in/hr0.0 mm/hr 0.05 in1.3 mm
04:30 AM 30.1°F-1.1°C 26.7°F-2.9°C 87% 5.0 mph NW8.0 kmh NW 12.0 mph19.3 kmh 29.73 in1006.8 mb 0.00 in0.0 mm 0.00 in/hr0.0 mm/hr 0.05 in1.3 mm
04:20 AM 30.2°F-1.0°C 26.8°F-2.9°C 87% 12.0 mph W19.3 kmh W 15.0 mph24.1 kmh 29.73 in1006.8 mb 0.01 in0.3 mm 0.06 in/hr1.5 mm/hr 0.05 in1.3 mm
04:10 AM 30.2°F-1.0°C 27.1°F-2.7°C 88% 1.0 mph W1.6 kmh W -- 29.71 in1006.1 mb 0.00 in0.0 mm 0.00 in/hr0.0 mm/hr 0.04 in1.0 mm
04:00 AM 30.2°F-1.0°C 27.1°F-2.7°C 88% 1.0 mph W1.6 kmh W 7.0 mph11.3 kmh 29.71 in1006.1 mb 0.00 in0.0 mm 0.00 in/hr0.0 mm/hr 0.04 in1.0 mm
03:50 AM 30.3°F-0.9°C 27.2°F-2.7°C 88% Calm Calm 1.0 mph1.6 kmh 29.71 in1006.1 mb 0.00 in0.0 mm 0.00 in/hr0.0 mm/hr 0.04 in1.0 mm
03:40 AM 30.3°F-0.9°C 27.2°F-2.7°C 88% Calm Calm 3.0 mph4.8 kmh 29.72 in1006.4 mb 0.01 in0.3 mm 0.06 in/hr1.5 mm/hr 0.04 in1.0 mm
03:30 AM 30.3°F-0.9°C 27.2°F-2.7°C 88% 2.0 mph W3.2 kmh W 3.0 mph4.8 kmh 29.71 in1006.1 mb 0.00 in0.0 mm 0.00 in/hr0.0 mm/hr 0.03 in0.8 mm
03:20 AM 30.4°F-0.9°C 27.3°F-2.6°C 88% Calm Calm -- 29.70 in1005.8 mb 0.00 in0.0 mm 0.00 in/hr0.0 mm/hr 0.03 in0.8 mm
03:10 AM 30.5°F-0.8°C 27.6°F-2.4°C 89% Calm Calm -- 29.71 in1006.1 mb 0.00 in0.0 mm 0.00 in/hr0.0 mm/hr 0.03 in0.8 mm
03:00 AM 30.5°F-0.8°C 27.6°F-2.4°C 89% 2.0 mph W3.2 kmh W 6.0 mph9.7 kmh 29.71 in1006.1 mb 0.00 in0.0 mm 0.00 in/hr0.0 mm/hr 0.03 in0.8 mm
02:50 AM 30.6°F-0.8°C 27.7°F-2.4°C 89% 1.0 mph W1.6 kmh W 3.0 mph4.8 kmh 29.71 in1006.1 mb 0.00 in0.0 mm 0.00 in/hr0.0 mm/hr 0.03 in0.8 mm
02:40 AM 30.6°F-0.8°C 27.7°F-2.4°C 89% 1.0 mph W1.6 kmh W 3.0 mph4.8 kmh 29.70 in1005.8 mb 0.00 in0.0 mm 0.00 in/hr0.0 mm/hr 0.03 in0.8 mm
02:30 AM 30.6°F-0.8°C 28.0°F-2.2°C 90% 5.0 mph WSW8.0 kmh WSW 10.0 mph16.1 kmh 29.71 in1006.1 mb 0.01 in0.3 mm 0.06 in/hr1.5 mm/hr 0.03 in0.8 mm
02:20 AM 30.7°F-0.7°C 28.1°F-2.2°C 90% 5.0 mph W8.0 kmh W 7.0 mph11.3 kmh 29.69 in1005.4 mb 0.00 in0.0 mm 0.00 in/hr0.0 mm/hr 0.02 in0.5 mm
02:10 AM 30.7°F-0.7°C 28.4°F-2.0°C 91% 2.0 mph WNW3.2 kmh WNW 6.0 mph9.7 kmh 29.70 in1005.8 mb 0.00 in0.0 mm 0.00 in/hr0.0 mm/hr 0.02 in0.5 mm
02:00 AM 30.8°F-0.7°C 28.5°F-1.9°C 91% 3.0 mph WNW4.8 kmh WNW 12.0 mph19.3 kmh 29.68 in1005.1 mb 0.00 in0.0 mm 0.00 in/hr0.0 mm/hr 0.02 in0.5 mm
01:50 AM 30.8°F-0.7°C 28.5°F-1.9°C 91% 3.0 mph W4.8 kmh W 8.0 mph12.9 kmh 29.70 in1005.8 mb 0.01 in0.3 mm 0.06 in/hr1.5 mm/hr 0.02 in0.5 mm
01:40 AM 30.8°F-0.7°C 28.5°F-1.9°C 91% 1.0 mph W1.6 kmh W 3.0 mph4.8 kmh 29.69 in1005.4 mb 0.00 in0.0 mm 0.00 in/hr0.0 mm/hr 0.02 in0.5 mm
01:30 AM 30.9°F-0.6°C 28.6°F-1.9°C 91% Calm Calm -- 29.68 in1005.1 mb 0.00 in0.0 mm 0.00 in/hr0.0 mm/hr 0.02 in0.5 mm
01:20 AM 30.9°F-0.6°C 28.6°F-1.9°C 91% 1.0 mph W1.6 kmh W 5.0 mph8.0 kmh 29.68 in1005.1 mb 0.00 in0.0 mm 0.00 in/hr0.0 mm/hr 0.02 in0.5 mm
01:10 AM 30.9°F-0.6°C 28.9°F-1.7°C 92% 2.0 mph W3.2 kmh W 3.0 mph4.8 kmh 29.68 in1005.1 mb 0.00 in0.0 mm 0.00 in/hr0.0 mm/hr 0.02 in0.5 mm
01:00 AM 30.9°F-0.6°C 28.9°F-1.7°C 92% 3.0 mph W4.8 kmh W 5.0 mph8.0 kmh 29.67 in1004.7 mb 0.01 in0.3 mm 0.01 in/hr0.3 mm/hr 0.02 in0.5 mm
12:50 AM 30.8°F-0.7°C 28.8°F-1.8°C 92% 7.0 mph W11.3 kmh W 12.0 mph19.3 kmh 29.66 in1004.4 mb 0.00 in0.0 mm 0.00 in/hr0.0 mm/hr 0.01 in0.3 mm
12:40 AM 30.8°F-0.7°C 28.8°F-1.8°C 92% 2.0 mph W3.2 kmh W 6.0 mph9.7 kmh 29.65 in1004.1 mb 0.00 in0.0 mm 0.00 in/hr0.0 mm/hr 0.01 in0.3 mm
12:30 AM 30.8°F-0.7°C 28.8°F-1.8°C 92% 5.0 mph WNW8.0 kmh WNW 7.0 mph11.3 kmh 29.64 in1003.7 mb 0.01 in0.3 mm 0.06 in/hr1.5 mm/hr 0.01 in0.3 mm
12:20 AM 30.8°F-0.7°C 28.8°F-1.8°C 92% 3.0 mph WNW4.8 kmh WNW 5.0 mph8.0 kmh 29.63 in1003.4 mb 0.00 in0.0 mm 0.00 in/hr0.0 mm/hr 0.00 in0.0 mm
12:10 AM 30.8°F-0.7°C 28.8°F-1.8°C 92% 2.0 mph W3.2 kmh W 7.0 mph11.3 kmh 29.63 in1003.4 mb 0.00 in0.0 mm 0.00 in/hr0.0 mm/hr 0.00 in0.0 mm
12:00 AM 30.7°F-0.7°C 28.7°F-1.8°C 92% 3.0 mph W4.8 kmh W 13.0 mph20.9 kmh 29.63 in1003.4 mb 0.00 in0.0 mm 0.00 in/hr0.0 mm/hr 0.00 in0.0 mm